Time;durP1;ratioP1;P1;durP2;ratioP2;P2;SDS_P1;SDS_P2;PMS_P1;PMS_P2;Temp;Humidity;BMP_temperature;BMP_pressure;BME280_temperature;BME280_humidity;BME280_pressure;Samples;Min_cycle;Max_cycle;Signal;HPM_P1;HPM_P2
2022/07/13 00:01:21;;;;;;;3.23;2.10;;;21.70;84.60;;;22.57;54.61;101269.78;4928984;29;20641;-67
2022/07/13 00:03:48;;;;;;;7.57;2.37;;;21.70;85.00;;;22.56;54.76;101275.25;4922300;29;20664;-67
2022/07/13 00:06:15;;;;;;;6.37;2.60;;;21.70;85.20;;;22.55;54.48;101274.44;4935770;29;20608;-68
2022/07/13 00:08:42;;;;;;;5.30;2.47;;;21.70;85.10;;;22.60;54.16;101274.75;4928751;29;20692;-67
2022/07/13 00:11:09;;;;;;;3.20;2.30;;;21.70;84.80;;;22.62;54.27;101274.56;4925485;29;20683;-68
2022/07/13 00:13:36;;;;;;;2.17;1.87;;;21.80;85.00;;;22.62;54.43;101277.22;4930625;29;20625;-68
2022/07/13 00:16:03;;;;;;;2.97;2.20;;;21.80;85.10;;;22.63;54.30;101271.78;4925708;29;20621;-68
2022/07/13 00:18:30;;;;;;;2.17;1.97;;;21.80;85.10;;;22.63;54.20;101279.75;4934019;29;20657;-65
2022/07/13 00:20:57;;;;;;;3.03;2.37;;;21.80;85.30;;;22.69;54.27;101284.38;4918783;29;20972;-68
2022/07/13 00:23:24;;;;;;;4.47;2.47;;;21.80;85.60;;;22.67;54.25;101281.06;4915867;29;20961;-68
2022/07/13 00:25:51;;;;;;;5.07;2.47;;;21.80;85.70;;;22.67;54.29;101283.72;4920739;29;20657;-69
2022/07/13 00:28:18;;;;;;;3.63;2.27;;;21.80;85.80;;;22.67;54.42;101280.22;4916367;29;20764;-67
2022/07/13 00:30:45;;;;;;;3.40;3.10;;;21.80;85.90;;;22.63;54.47;101286.88;4901385;29;20784;-68
2022/07/13 00:33:12;;;;;;;2.37;2.17;;;21.80;86.60;;;22.65;53.54;101276.91;4930135;29;20637;-65
2022/07/13 00:35:39;;;;;;;2.57;2.37;;;21.80;85.80;;;22.67;53.76;101270.41;4925700;29;20626;-69
2022/07/13 00:38:06;;;;;;;3.17;2.10;;;21.80;85.70;;;22.65;53.48;101275.09;4929944;29;21287;-68
2022/07/13 00:40:33;;;;;;;5.83;2.20;;;21.80;85.60;;;22.61;53.91;101276.44;4943276;29;20799;-66
2022/07/13 00:43:00;;;;;;;10.07;2.30;;;21.70;85.90;;;22.57;53.90;101269.78;4927801;29;20641;-67
2022/07/13 00:45:27;;;;;;;2.40;2.20;;;21.70;86.10;;;22.58;54.01;101268.75;4925662;29;20668;-66
2022/07/13 00:47:54;;;;;;;2.60;2.30;;;21.70;87.00;;;22.52;54.41;101274.75;4926126;29;20705;-65
2022/07/13 00:50:21;;;;;;;2.23;2.00;;;21.70;86.80;;;22.48;54.55;101272.63;4933427;29;20713;-67
2022/07/13 00:52:49;;;;;;;1.90;1.80;;;21.60;87.40;;;22.45;54.65;101270.28;4919892;29;20658;-67
2022/07/13 00:55:17;;;;;;;2.50;2.23;;;21.60;87.90;;;22.41;54.86;101272.47;4915609;29;20641;-68
2022/07/13 00:57:44;;;;;;;2.53;2.07;;;21.50;88.40;;;22.40;55.18;101270.81;4924972;29;20662;-64
2022/07/13 01:00:14;;;;;;;5.80;2.37;;;21.50;88.90;;;22.36;55.36;101262.34;4925768;29;20618;-67
2022/07/13 01:02:43;;;;;;;2.03;1.93;;;21.50;89.40;;;22.35;55.24;101259.88;4911014;29;20740;-67
2022/07/13 01:05:12;;;;;;;4.30;2.57;;;21.50;89.10;;;22.34;55.17;101266.16;4929602;29;20629;-67
2022/07/13 01:07:40;;;;;;;2.57;1.60;;;21.50;89.20;;;22.36;55.26;101269.47;4915599;29;20647;-66
2022/07/13 01:10:10;;;;;;;2.57;2.00;;;21.50;89.70;;;22.31;55.44;101259.38;4917188;29;21213;-67
2022/07/13 01:12:40;;;;;;;2.00;1.80;;;21.50;90.00;;;22.35;55.22;101268.69;4935257;29;20614;-67
2022/07/13 01:15:09;;;;;;;3.33;2.10;;;21.50;90.10;;;22.36;55.08;101264.16;4933070;29;20708;-68
2022/07/13 01:17:37;;;;;;;2.73;2.33;;;21.50;90.00;;;22.37;55.15;101260.53;4947910;29;21213;-66
2022/07/13 01:20:07;;;;;;;2.50;2.30;;;21.50;90.10;;;22.39;55.00;101256.69;4931746;29;20621;-67
2022/07/13 01:22:42;;;;;;;3.03;2.27;;;21.60;90.10;;;22.41;54.85;101240.56;4918667;29;20649;-67
2022/07/13 01:25:10;;;;;;;4.60;2.30;;;21.60;90.00;;;22.36;54.95;101248.22;4914721;29;20625;-67
2022/07/13 01:27:38;;;;;;;2.03;1.93;;;21.50;90.00;;;22.39;54.82;101246.06;4926344;29;20662;-67
2022/07/13 01:30:06;;;;;;;2.40;2.20;;;21.60;90.10;;;22.33;55.21;101243.25;4914436;29;20611;-67
2022/07/13 01:32:53;;;;;;;1.77;1.67;;;21.50;90.20;;;22.31;55.07;101239.94;4926156;29;20700;-67
2022/07/13 01:35:22;;;;;;;2.30;2.10;;;21.50;90.30;;;22.29;54.84;101237.47;4933555;29;20665;-67
2022/07/13 01:37:50;;;;;;;2.23;2.07;;;21.40;90.30;;;22.26;55.08;101239.63;4926163;29;21245;-66
2022/07/13 01:40:17;;;;;;;2.93;2.10;;;21.40;90.60;;;22.27;55.32;101241.28;4913021;29;20722;-67
2022/07/13 01:42:51;;;;;;;2.10;2.00;;;21.50;90.70;;;22.27;55.16;101234.16;4914205;29;20622;-66
2022/07/13 01:45:22;;;;;;;2.50;2.20;;;21.40;90.70;;;22.29;55.01;101237.47;4931635;29;20732;-67
2022/07/13 01:47:53;;;;;;;2.30;2.03;;;21.50;90.50;;;22.35;54.57;101227.97;4933899;29;20736;-67
2022/07/13 01:50:23;;;;;;;1.97;1.87;;;21.50;90.40;;;22.25;54.93;101228.16;4927646;29;20649;-67
2022/07/13 01:52:51;;;;;;;2.93;2.40;;;21.40;90.60;;;22.09;55.92;101230.88;4924431;29;20684;-65
2022/07/13 01:55:19;;;;;;;4.50;2.13;;;21.30;91.10;;;22.02;56.53;101227.22;4932474;29;20605;-67
2022/07/13 01:57:47;;;;;;;3.53;2.03;;;21.20;91.60;;;22.00;56.30;101231.88;4933292;29;20645;-67
2022/07/13 02:00:16;;;;;;;2.53;2.23;;;21.10;91.90;;;22.01;56.96;101232.72;4930694;29;20633;-68
2022/07/13 02:02:43;;;;;;;3.27;2.10;;;21.10;92.20;;;22.03;56.89;101238.69;4932924;29;20721;-66
2022/07/13 02:05:11;;;;;;;3.43;2.50;;;21.20;92.50;;;22.03;57.05;101233.38;4933638;29;20617;-67
2022/07/13 02:07:39;;;;;;;2.27;2.17;;;21.20;92.60;;;22.01;57.04;101235.38;4932024;29;20669;-68
2022/07/13 02:10:08;;;;;;;6.57;2.33;;;21.20;93.00;;;22.06;57.20;101230.38;4930707;29;20716;-67
2022/07/13 02:12:35;;;;;;;12.23;2.30;;;21.20;93.20;;;22.02;58.14;101235.19;4932541;29;20641;-67
2022/07/13 02:15:02;;;;;;;5.17;2.20;;;21.20;93.60;;;21.98;58.30;101233.03;4930531;29;20629;-67
2022/07/13 02:17:29;;;;;;;2.40;2.20;;;21.20;94.20;;;22.07;58.95;101232.03;4933276;29;21448;-67
2022/07/13 02:19:56;;;;;;;3.33;2.40;;;21.20;94.80;;;22.00;59.67;101229.22;4926530;29;20717;-65
2022/07/13 02:22:23;;;;;;;6.50;2.47;;;21.20;95.40;;;21.96;59.92;101221.75;4927577;29;20749;-67
2022/07/13 02:24:50;;;;;;;2.30;2.20;;;21.10;95.80;;;21.90;60.57;101219.78;4927754;29;20615;-68
2022/07/13 02:27:17;;;;;;;6.07;2.43;;;21.10;96.50;;;21.84;61.27;101217.81;4929614;29;20673;-66
2022/07/13 02:29:44;;;;;;;2.60;2.50;;;21.00;97.60;;;21.83;61.27;101213.50;4933035;29;20589;-67
2022/07/13 02:32:11;;;;;;;2.10;2.00;;;21.00;97.90;;;21.81;61.79;101218.94;4932816;29;20661;-67
2022/07/13 02:34:38;;;;;;;2.30;2.20;;;20.90;98.50;;;21.77;62.00;101206.16;4934000;29;20701;-67
2022/07/13 02:37:05;;;;;;;2.30;2.10;;;20.90;99.20;;;21.67;62.69;101198.38;4931031;29;20683;-67
2022/07/13 02:39:32;;;;;;;2.47;2.27;;;20.90;99.70;;;21.53;63.15;101204.34;4932745;29;20614;-67
2022/07/13 02:41:59;;;;;;;2.57;2.30;;;20.80;99.90;;;21.33;63.13;101205.69;4933518;29;20671;-67
2022/07/13 02:44:26;;;;;;;2.60;2.40;;;20.60;99.90;;;21.26;62.76;101202.03;4931471;29;20688;-67
2022/07/13 02:46:53;;;;;;;2.67;2.40;;;20.50;99.90;;;21.16;63.11;101193.41;4928555;29;21262;-68
2022/07/13 02:49:20;;;;;;;2.33;2.13;;;20.40;99.90;;;21.09;63.58;101192.41;4912620;29;20612;-67
2022/07/13 02:51:46;;;;;;;2.60;2.00;;;20.30;99.90;;;21.11;63.30;101193.91;4915353;29;20677;-67
2022/07/13 02:54:13;;;;;;;2.70;1.87;;;20.30;99.90;;;21.04;63.59;101189.44;4932335;29;20621;-67
2022/07/13 02:56:40;;;;;;;2.20;2.10;;;20.30;99.90;;;20.95;63.74;101188.56;4932408;29;20629;-67
2022/07/13 02:59:07;;;;;;;2.80;2.30;;;20.20;99.90;;;21.06;63.64;101200.72;4931882;29;20632;-67
2022/07/13 03:01:34;;;;;;;2.37;2.27;;;20.20;99.90;;;21.04;64.23;101194.75;4930738;29;21225;-67
2022/07/13 03:04:01;;;;;;;2.03;1.93;;;20.30;99.90;;;21.12;64.56;101190.28;4931054;29;21088;-67
2022/07/13 03:06:28;;;;;;;2.83;2.50;;;20.40;99.90;;;21.14;64.45;101192.75;4929259;29;20656;-67
2022/07/13 03:08:55;;;;;;;2.77;2.57;;;20.40;99.90;;;21.10;65.11;101189.59;4931310;29;21006;-67
2022/07/13 03:11:22;;;;;;;2.43;2.23;;;20.30;99.90;;;21.11;65.32;101187.75;4934649;29;20740;-67
2022/07/13 03:13:49;;;;;;;3.50;2.33;;;20.30;99.90;;;21.02;66.00;101183.44;4937380;29;20613;-66
2022/07/13 03:16:16;;;;;;;3.00;2.30;;;20.30;99.90;;;21.05;66.46;101188.41;4934801;29;20621;-67
2022/07/13 03:18:43;;;;;;;2.07;1.97;;;20.30;99.90;;;21.06;66.19;101193.56;4935860;29;20649;-66
2022/07/13 03:21:10;;;;;;;2.20;2.10;;;20.30;99.90;;;21.08;66.36;101190.75;4918939;29;20687;-67
2022/07/13 03:23:37;;;;;;;2.50;2.30;;;20.30;99.90;;;21.08;66.53;101199.56;4916650;29;20602;-66
2022/07/13 03:26:04;;;;;;;2.90;2.47;;;20.30;99.90;;;21.13;66.57;101199.88;4923638;29;21221;-66
2022/07/13 03:28:31;;;;;;;3.47;2.20;;;20.30;99.90;;;21.18;66.54;101204.69;4934793;29;20641;-67
2022/07/13 03:30:58;;;;;;;2.00;1.70;;;20.40;99.90;;;21.20;66.48;101203.53;4934067;29;20649;-67
2022/07/13 03:33:26;;;;;;;2.73;2.53;;;20.40;99.90;;;21.10;66.83;101200.22;4933978;29;20652;-67
2022/07/13 03:35:53;;;;;;;2.20;1.87;;;20.30;99.90;;;21.02;67.03;101196.69;4934166;29;20651;-66
2022/07/13 03:38:21;;;;;;;4.37;2.73;;;20.20;99.90;;;21.06;66.77;101204.16;4935769;29;20692;-64
2022/07/13 03:40:48;;;;;;;2.43;2.33;;;20.20;99.90;;;21.15;66.79;101211.16;4933720;29;20615;-64
2022/07/13 03:43:15;;;;;;;2.20;2.00;;;20.30;99.90;;;21.12;66.83;101206.19;4935250;29;20661;-66
2022/07/13 03:45:42;;;;;;;2.20;2.10;;;20.30;99.90;;;21.02;67.08;101208.13;4934369;29;21097;-65
2022/07/13 03:48:09;;;;;;;2.63;2.47;;;20.20;99.90;;;21.07;66.36;101213.81;4917931;29;20652;-67
2022/07/13 03:50:36;;;;;;;3.10;2.80;;;20.30;99.90;;;20.92;67.15;101207.44;4933181;29;20614;-68
2022/07/13 03:53:03;;;;;;;2.77;2.57;;;20.20;99.90;;;20.91;67.13;101208.44;4935043;29;20760;-67
2022/07/13 03:55:30;;;;;;;2.93;2.53;;;20.10;99.90;;;20.78;67.74;101211.53;4932998;29;20664;-65
2022/07/13 03:57:57;;;;;;;3.57;3.27;;;20.00;99.90;;;20.87;67.60;101209.75;4936375;29;21098;-67
2022/07/13 04:00:24;;;;;;;2.60;2.40;;;20.10;99.90;;;20.86;67.54;101213.41;4935006;29;20631;-67
2022/07/13 04:02:51;;;;;;;3.67;2.83;;;20.10;99.90;;;20.94;67.18;101224.03;4918422;29;20650;-65
2022/07/13 04:05:19;;;;;;;2.77;2.33;;;20.10;99.90;;;20.96;66.74;101222.03;4899196;29;21099;-67
2022/07/13 04:07:46;;;;;;;2.53;2.40;;;20.20;99.90;;;20.99;66.87;101213.75;4929722;29;21066;-67
2022/07/13 04:10:13;;;;;;;2.57;2.40;;;20.20;99.90;;;20.99;67.06;101208.47;4932979;29;20707;-68
2022/07/13 04:12:43;;;;;;;5.27;2.57;;;20.20;99.90;;;21.01;66.79;101202.97;4927843;29;20680;-67
2022/07/13 04:15:10;;;;;;;3.27;2.40;;;20.20;99.90;;;20.99;67.12;101197.84;4916202;29;21194;-68
2022/07/13 04:17:38;;;;;;;4.10;2.87;;;20.20;99.90;;;20.97;67.41;101194.53;4926228;29;21256;-68
2022/07/13 04:20:07;;;;;;;5.30;2.83;;;20.10;99.90;;;20.95;67.17;101193.03;4924100;29;20605;-67
2022/07/13 04:22:34;;;;;;;4.13;2.60;;;20.10;99.90;;;20.93;67.34;101195.84;4915334;29;20973;-67
2022/07/13 04:25:05;;;;;;;3.23;2.50;;;20.10;99.90;;;20.86;67.93;101194.84;4915839;29;20746;-68
2022/07/13 04:27:32;;;;;;;2.47;2.37;;;20.10;99.90;;;20.95;67.18;101196.53;4927410;29;20681;-68
2022/07/13 04:29:59;;;;;;;3.67;2.77;;;20.10;99.90;;;21.07;66.54;101192.56;4919413;29;21170;-67
2022/07/13 04:32:26;;;;;;;3.90;2.40;;;20.30;99.90;;;21.13;66.12;101197.22;4923825;29;20680;-68
2022/07/13 04:34:53;;;;;;;4.13;2.47;;;20.40;99.90;;;21.24;65.59;101199.56;4924714;29;21129;-68
2022/07/13 04:37:21;;;;;;;2.60;2.50;;;20.50;99.90;;;21.40;65.12;101204.03;4924530;29;20716;-67
2022/07/13 04:39:48;;;;;;;2.40;2.30;;;20.60;99.90;;;21.63;63.35;101197.91;4922034;29;20630;-66
2022/07/13 04:42:14;;;;;;;2.77;2.13;;;20.90;99.90;;;21.80;62.40;101208.47;4908250;29;21019;-67
2022/07/13 04:44:41;;;;;;;2.23;2.13;;;21.00;99.90;;;21.96;61.77;101214.63;4925147;29;20673;-68
2022/07/13 04:47:08;;;;;;;4.50;2.43;;;21.20;99.90;;;22.05;61.73;101218.09;4923214;29;21294;-66
2022/07/13 04:49:35;;;;;;;3.87;2.43;;;21.30;99.90;;;22.15;61.73;101218.72;4918446;29;21233;-68
2022/07/13 04:52:05;;;;;;;2.43;2.23;;;21.40;99.90;;;22.29;61.10;101202.06;4924173;29;20795;-67
2022/07/13 04:54:32;;;;;;;2.80;2.60;;;21.60;99.90;;;22.43;60.04;101204.00;4925628;29;20673;-68
2022/07/13 04:56:59;;;;;;;2.10;1.90;;;21.70;99.90;;;22.59;59.99;101200.47;4930314;29;20988;-67
2022/07/13 04:59:26;;;;;;;2.57;2.37;;;21.90;99.90;;;22.67;59.75;101197.75;4932541;29;21181;-67
2022/07/13 05:01:53;;;;;;;2.30;2.17;;;21.90;99.90;;;22.75;59.53;101184.41;4933765;29;20756;-68
2022/07/13 05:04:20;;;;;;;2.07;1.97;;;22.00;99.90;;;22.81;59.28;101187.19;4914527;29;20640;-67
2022/07/13 05:06:48;;;;;;;2.97;2.30;;;22.00;99.90;;;22.94;58.76;101187.44;4933525;29;21204;-67
2022/07/13 05:09:15;;;;;;;6.90;2.10;;;22.20;99.90;;;22.89;58.48;101194.31;4932542;29;20637;-67
2022/07/13 05:11:42;;;;;;;2.43;2.30;;;22.10;99.90;;;22.90;58.64;101196.78;4933234;29;20665;-68
2022/07/13 05:14:09;;;;;;;4.70;2.50;;;22.10;99.90;;;23.02;58.53;101197.22;4934353;29;20669;-68
2022/07/13 05:16:44;;;;;;;6.60;3.00;;;22.20;99.90;;;23.19;58.36;101195.25;4934423;29;20685;-68
2022/07/13 05:19:11;;;;;;;3.23;2.67;;;22.40;99.90;;;23.39;57.93;101207.09;4915871;29;21193;-67
2022/07/13 05:21:39;;;;;;;2.90;2.70;;;22.60;99.90;;;23.58;57.47;101198.59;4932219;29;20636;-68
2022/07/13 05:24:06;;;;;;;3.40;3.10;;;22.80;99.70;;;23.71;57.11;101209.47;4933817;29;20614;-67
2022/07/13 05:26:33;;;;;;;2.63;2.43;;;23.00;99.50;;;23.88;56.40;101217.13;4930631;29;20649;-68
2022/07/13 05:29:04;;;;;;;2.30;2.20;;;23.20;99.10;;;24.10;55.90;101212.75;4929457;29;20661;-68
2022/07/13 05:31:31;;;;;;;2.60;2.50;;;23.40;98.70;;;24.33;55.59;101213.47;4933361;29;21048;-67
2022/07/13 05:33:58;;;;;;;2.30;2.20;;;23.60;98.40;;;24.51;54.46;101208.56;4934337;29;20681;-68
2022/07/13 05:36:25;;;;;;;2.33;2.23;;;23.80;97.80;;;24.70;53.47;101217.00;4931707;29;20830;-68
2022/07/13 05:38:52;;;;;;;5.60;2.80;;;24.00;97.20;;;24.66;52.97;101222.72;4910194;29;20665;-67
2022/07/13 05:41:19;;;;;;;3.90;2.50;;;24.00;96.80;;;24.47;54.07;101227.81;4914578;29;21005;-67
2022/07/13 05:43:47;;;;;;;4.03;2.40;;;23.80;97.00;;;24.55;54.05;101227.72;4914565;29;20631;-67
2022/07/13 05:46:14;;;;;;;5.70;2.37;;;23.80;97.10;;;24.73;53.63;101216.63;4925380;29;21022;-68
2022/07/13 05:48:41;;;;;;;6.77;2.13;;;24.00;96.70;;;24.83;53.15;101222.53;4933941;29;20696;-68
2022/07/13 05:51:08;;;;;;;2.50;2.30;;;24.00;96.50;;;24.95;52.35;101221.03;4929409;29;21219;-67
2022/07/13 05:53:55;;;;;;;2.53;2.30;;;24.20;96.10;;;25.04;51.70;101219.88;4925614;29;20629;-67
2022/07/13 05:56:22;;;;;;;3.53;2.40;;;24.20;95.60;;;25.14;51.87;101220.38;4931463;29;20645;-67
2022/07/13 05:58:51;;;;;;;8.73;2.87;;;24.40;95.40;;;25.18;51.38;101225.16;4932504;29;20664;-67
2022/07/13 06:01:18;;;;;;;4.60;2.30;;;24.40;95.20;;;25.24;51.58;101220.88;4933196;29;20621;-67
2022/07/13 06:03:45;;;;;;;2.63;2.43;;;24.50;95.10;;;25.27;51.67;101224.03;4934233;29;20617;-67
2022/07/13 06:06:12;;;;;;;2.83;2.60;;;24.50;95.00;;;25.20;50.79;101216.97;4930633;29;20669;-67
2022/07/13 06:08:39;;;;;;;3.57;2.87;;;24.50;94.30;;;25.32;50.57;101215.44;4931796;29;20652;-67
2022/07/13 06:11:06;;;;;;;3.10;2.50;;;24.50;94.20;;;25.32;49.95;101218.13;4930786;29;20637;-66
2022/07/13 06:13:33;;;;;;;2.63;2.40;;;24.50;93.90;;;25.09;50.45;101204.09;4933402;29;20648;-67
2022/07/13 06:16:01;;;;;;;5.13;2.07;;;24.30;94.00;;;25.02;51.08;101213.91;4931191;29;20641;-67
2022/07/13 06:18:28;;;;;;;2.27;2.07;;;24.20;94.20;;;24.97;50.43;101216.31;4931719;29;20681;-65
2022/07/13 06:20:55;;;;;;;2.13;2.03;;;24.10;94.10;;;24.91;50.72;101206.41;4928551;29;21232;-67
2022/07/13 06:23:23;;;;;;;1.80;1.70;;;24.10;94.00;;;24.92;50.36;101208.88;4930215;29;20609;-66
2022/07/13 06:25:50;;;;;;;1.80;1.70;;;24.10;93.80;;;24.77;50.33;101217.97;4930214;29;20657;-66
2022/07/13 06:28:17;;;;;;;2.30;1.77;;;23.90;93.90;;;25.02;50.41;101211.25;4933295;29;20649;-67
2022/07/13 06:30:44;;;;;;;2.10;2.00;;;24.20;93.80;;;24.98;50.15;101207.31;4931678;29;20664;-67
2022/07/13 06:33:11;;;;;;;2.00;1.90;;;24.20;93.70;;;25.08;50.29;101210.47;4933045;29;20645;-67
2022/07/13 06:35:38;;;;;;;2.00;1.90;;;24.30;93.70;;;25.10;50.37;101203.09;4929756;29;20633;-67
2022/07/13 06:38:06;;;;;;;2.37;2.07;;;24.30;93.70;;;25.21;50.48;101210.63;4930095;29;20664;-67
2022/07/13 06:40:33;;;;;;;2.30;2.20;;;24.40;93.60;;;25.43;49.69;101216.81;4931321;29;20976;-67
2022/07/13 06:43:00;;;;;;;2.10;1.83;;;24.60;93.40;;;25.60;49.31;101224.31;4930669;29;20661;-68
2022/07/13 06:45:28;;;;;;;2.27;2.07;;;24.80;93.10;;;25.77;49.43;101209.66;4934689;29;20617;-67
2022/07/13 06:47:56;;;;;;;3.07;2.20;;;25.10;92.80;;;25.77;49.11;101203.50;4933049;29;21240;-66
2022/07/13 06:50:23;;;;;;;2.33;2.13;;;25.00;92.60;;;25.76;49.15;101207.19;4934566;29;20665;-67
2022/07/13 06:52:50;;;;;;;2.13;2.03;;;25.00;92.50;;;25.99;48.72;101211.25;4923937;29;20646;-67
2022/07/13 06:55:17;;;;;;;2.70;2.50;;;25.20;92.30;;;26.20;48.45;101217.56;4919255;29;20614;-67
2022/07/13 06:57:45;;;;;;;2.60;2.10;;;25.50;92.30;;;26.86;46.59;101208.78;4927983;29;20671;-63
2022/07/13 07:00:13;;;;;;;3.37;2.07;;;26.10;91.30;;;27.57;45.01;101212.63;4923732;29;20630;-66
2022/07/13 07:02:40;;;;;;;2.23;2.10;;;26.90;90.20;;;28.16;43.32;101207.19;4925008;29;20630;-67
2022/07/13 07:05:09;;;;;;;4.30;2.20;;;27.50;87.80;;;28.63;41.82;101203.31;4929690;29;20716;-68
2022/07/13 07:07:40;;;;;;;3.07;2.40;;;28.00;85.70;;;28.84;42.06;101193.06;4929320;29;21030;-67
2022/07/13 07:10:09;;;;;;;3.00;2.40;;;28.20;85.00;;;29.13;41.58;101195.13;4923129;29;21006;-67
2022/07/13 07:12:36;;;;;;;2.50;2.30;;;28.40;83.80;;;29.14;41.78;101193.28;4925050;29;20672;-68
2022/07/13 07:15:04;;;;;;;2.63;2.40;;;28.50;82.90;;;29.50;40.54;101196.13;4926078;29;20624;-68
2022/07/13 07:17:31;;;;;;;2.97;2.20;;;28.70;82.10;;;29.38;39.98;101189.81;4921060;29;21066;-67
2022/07/13 07:20:06;;;;;;;1.63;1.53;;;28.80;79.40;;;29.19;39.84;101185.44;4923690;29;20647;-65
2022/07/13 07:22:34;;;;;;;1.80;1.70;;;28.60;78.10;;;29.13;39.37;101188.97;4925082;29;20625;-64
2022/07/13 07:25:00;;;;;;;4.90;1.87;;;28.40;78.20;;;29.12;39.47;101190.81;4932332;29;21016;-67
2022/07/13 07:27:27;;;;;;;4.17;2.10;;;28.40;78.00;;;29.00;39.99;101191.75;4923169;29;20734;-66
2022/07/13 07:29:54;;;;;;;1.97;1.87;;;28.30;77.40;;;28.81;40.67;101201.56;4919507;29;20731;-67
2022/07/13 07:32:21;;;;;;;2.07;1.87;;;28.00;78.10;;;28.71;40.87;101198.50;4936444;29;21200;-67
2022/07/13 07:34:49;;;;;;;2.87;1.60;;;28.00;78.30;;;28.66;40.96;101200.22;4935159;29;20666;-67
2022/07/13 07:37:19;;;;;;;2.20;1.60;;;27.80;78.60;;;28.34;41.39;101205.50;4931164;29;20760;-67
2022/07/13 07:39:46;;;;;;;2.27;2.17;;;27.60;78.70;;;28.33;41.94;101206.50;4921200;29;20676;-67
2022/07/13 07:42:13;;;;;;;4.60;2.23;;;27.50;79.60;;;28.50;41.90;101208.69;4931677;29;21388;-67
2022/07/13 07:44:40;;;;;;;3.20;1.87;;;27.60;79.70;;;28.75;41.37;101204.28;4916201;29;20705;-67
2022/07/13 07:47:07;;;;;;;3.00;1.70;;;27.90;79.20;;;28.99;40.72;101208.88;4934879;29;20793;-68
2022/07/13 07:49:35;;;;;;;1.60;1.50;;;28.20;78.40;;;29.30;39.97;101203.53;4931707;29;21244;-68
2022/07/13 07:52:07;;;;;;;1.67;1.67;;;28.50;77.50;;;29.35;40.12;101208.22;4931190;29;20621;-67
2022/07/13 07:54:54;;;;;;;1.60;1.53;;;28.70;76.50;;;29.76;38.75;101214.75;4926683;29;20621;-68
2022/07/13 07:57:27;;;;;;;1.73;1.63;;;29.00;76.00;;;30.57;38.02;101209.91;4930924;29;20654;-68
2022/07/13 07:59:54;;;;;;;11.20;2.40;;;29.80;74.50;;;32.25;34.89;101211.13;4932753;29;24456;-67
2022/07/13 08:02:21;;;;;;;1.90;1.80;;;31.60;70.80;;;34.14;31.08;101223.94;4935695;29;20213;-67
2022/07/13 08:04:49;;;;;;;5.13;1.90;;;33.50;65.60;;;36.02;28.40;101212.75;4934834;29;20637;-68
2022/07/13 08:07:16;;;;;;;6.23;2.20;;;35.50;60.60;;;35.77;28.70;101213.41;4936136;29;20659;-68
2022/07/13 08:09:43;;;;;;;2.10;2.00;;;35.00;58.40;;;37.46;27.50;101217.22;4932521;29;20622;-67
2022/07/13 08:12:11;;;;;;;2.30;1.70;;;36.60;57.20;;;39.87;23.99;101215.03;4932284;29;21253;-65
2022/07/13 08:14:38;;;;;;;13.17;1.97;;;39.20;52.40;;;41.86;21.76;101225.19;4929305;29;20691;-69
2022/07/13 08:17:05;;;;;;;1.67;1.67;;;41.20;48.40;;;42.50;21.17;101229.66;4932828;29;21209;-66
2022/07/13 08:19:32;;;;;;;3.50;1.80;;;41.60;46.80;;;44.21;19.57;101216.19;4937664;29;20673;-67
2022/07/13 08:22:08;;;;;;;1.70;1.70;;;43.30;44.80;;;45.76;17.55;101217.69;4930269;29;20633;-68
2022/07/13 08:24:35;;;;;;;2.10;1.90;;;45.00;42.40;;;46.38;17.04;90021.63;4934771;29;20747;-67
2022/07/13 08:27:02;;;;;;;2.33;2.13;;;45.50;41.10;;;47.35;16.54;101208.84;4922125;29;20999;-66
2022/07/13 08:29:29;;;;;;;1.90;1.80;;;46.50;40.00;;;48.41;15.64;101200.44;4924380;29;20721;-68
2022/07/13 08:31:56;;;;;;;1.93;1.83;;;47.60;38.90;;;48.22;14.93;101190.78;4926526;29;20622;-69
2022/07/13 08:39:53;;;;;;;1.40;1.40;;;48.90;36.80;;;50.47;14.02;101187.56;4933618;29;20963;-67
2022/07/13 08:42:20;;;;;;;1.57;1.50;;;49.50;36.10;;;49.77;13.83;101182.38;4926610;29;20629;-67
2022/07/13 08:44:47;;;;;;;1.80;1.70;;;49.40;35.10;;;47.90;15.07;101183.44;4934003;29;20612;-67
2022/07/13 08:47:15;;;;;;;1.50;1.50;;;47.50;35.60;;;;;;4932917;29;20667;-67
2022/07/13 08:49:42;;;;;;;1.40;1.40;;;45.00;36.80;;;;;;4920423;29;20689;-68
2022/07/13 08:52:10;;;;;;;1.70;1.60;;;45.30;37.00;;;;;;4932202;29;20627;-66
2022/07/13 08:54:37;;;;;;;1.50;1.50;;;46.70;36.20;;;;;;4931889;29;20655;-67
2022/07/13 08:57:03;;;;;;;1.43;1.43;;;45.30;36.40;;;;;;4923320;29;20685;-67
2022/07/13 08:59:30;;;;;;;2.30;1.27;;;44.60;36.90;;;;;;4933710;29;20644;-67
2022/07/13 09:01:57;;;;;;;1.77;1.77;;;44.90;36.80;;;;;;4925920;29;20710;-68
2022/07/13 09:04:25;;;;;;;7.57;6.87;;;44.20;36.30;;;;;;4925747;29;20740;-68
2022/07/13 09:06:52;;;;;;;1.83;1.83;;;43.50;37.00;;;;;;4917408;29;20713;-66
2022/07/13 09:09:27;;;;;;;1.20;1.20;;;42.20;37.70;;;;;;4913613;29;20610;-66
2022/07/13 09:12:20;;;;;;;1.50;1.40;;;41.10;38.70;;;;;;4923037;29;21536;-66
2022/07/13 09:14:53;;;;;;;2.63;1.30;;;39.60;39.90;;;;;;4919500;29;20646;-66
2022/07/13 09:17:43;;;;;;;1.43;1.43;;;38.00;40.50;;;;;;4933878;29;21264;-68
2022/07/13 09:20:10;;;;;;;1.63;1.53;;;36.70;41.80;;;;;;4925254;29;21193;-66
2022/07/13 09:22:56;;;;;;;1.30;1.30;;;36.00;43.00;;;;;;4930536;29;20676;-66
2022/07/13 09:25:37;;;;;;;1.23;1.10;;;35.30;43.80;;;;;;4932895;29;21241;-68
2022/07/13 09:28:10;;;;;;;1.23;1.23;;;36.00;43.80;;;;;;4924887;29;20713;-66
2022/07/13 09:30:41;;;;;;;1.53;1.43;;;36.80;43.30;;;;;;4912267;29;21056;-66
2022/07/13 09:33:09;;;;;;;1.50;1.40;;;40.30;41.30;;;;;;4915889;29;21220;-67
2022/07/13 09:35:50;;;;;;;2.60;1.50;;;43.50;38.70;;;;;;4931665;29;20896;-65
2022/07/13 09:38:31;;;;;;;1.33;1.33;;;43.70;37.80;;;;;;4914798;29;20654;-66
2022/07/13 09:41:20;;;;;;;2.83;1.40;;;42.30;38.40;;;;;;4929013;29;20644;-67
2022/07/13 09:46:53;;;;;;;1.60;1.00;;;45.80;36.80;;;;;;4925423;29;20648;-68
2022/07/13 09:49:43;;;;;;;1.10;1.10;;;48.20;34.50;;;;;;4924186;29;21125;-67
2022/07/13 09:52:12;;;;;;;1.43;1.43;;;50.50;33.40;;;;;;4925397;29;20645;-68
2022/07/13 09:54:41;;;;;;;1.30;1.30;;;51.50;32.80;;;;;;4930936;29;20657;-67
2022/07/13 09:57:11;;;;;;;1.20;1.20;;;49.60;31.90;;;;;;4932434;29;21005;-67
2022/07/13 09:59:40;;;;;;;1.77;1.30;;;50.10;32.00;;;;;;4931915;29;20959;-68
2022/07/13 10:02:07;;;;;;;1.50;1.50;;;49.40;32.10;;;;;;4932672;29;20597;-68
2022/07/13 10:04:38;;;;;;;1.40;1.40;;;47.60;32.80;;;;;;4914515;29;20673;-68
2022/07/13 10:07:16;;;;;;;1.17;1.17;;;46.50;33.10;;;;;;4924755;29;20692;-69
2022/07/13 10:09:43;;;;;;;1.50;1.40;;;43.30;34.50;;;;;;4926705;29;21075;-70
2022/07/13 10:12:11;;;;;;;1.10;1.10;;;41.20;36.10;;;;;;4928312;29;20630;-66
2022/07/13 10:14:38;;;;;;;1.10;1.10;;;39.40;38.50;;;;;;4931368;29;20664;-69
2022/07/13 10:17:10;;;;;;;2.53;1.37;;;38.50;38.70;;;;;;4925094;29;20673;-69
2022/07/13 10:19:57;;;;;;;2.40;2.00;;;38.10;38.10;;;;;;4931635;29;21087;-67
2022/07/13 10:22:30;;;;;;;2.97;1.47;;;38.00;38.70;;;;;;4922856;29;21178;-68
2022/07/13 10:24:58;;;;;;;3.13;1.33;;;38.30;38.40;;;;;;4918034;29;21082;-65
2022/07/13 10:27:29;;;;;;;1.73;1.60;;;38.80;37.90;;;;;;4933159;29;20653;-69
2022/07/13 10:30:28;;;;;;;1.10;1.10;;;38.90;38.00;;;;;;4932458;29;20650;-68
2022/07/13 10:33:21;;;;;;;1.00;1.00;;;39.20;37.50;;;;;;4921957;29;20627;-68
2022/07/13 10:35:51;;;;;;;1.50;1.50;;;38.40;36.30;;;;;;4933475;29;20618;-68
2022/07/13 10:38:26;;;;;;;2.83;1.40;;;38.20;36.80;;;;;;4932648;29;20649;-68
2022/07/13 10:41:21;;;;;;;4.10;3.87;;;37.60;37.10;;;;;;4932378;29;20643;-68
2022/07/13 10:44:33;;;;;;;4.13;3.83;;;37.20;37.40;;;;;;4933185;29;20621;-69
2022/07/13 10:47:00;;;;;;;2.17;1.93;;;36.50;38.20;;;;;;4927320;29;20650;-70
2022/07/13 10:49:34;;;;;;;1.10;1.10;;;36.20;38.70;;;;;;4932650;29;20689;-66
2022/07/13 10:52:22;;;;;;;1.20;1.10;;;36.40;39.10;;;;;;4928278;29;20618;-65
2022/07/13 10:55:11;;;;;;;5.13;1.30;;;36.50;39.20;;;;;;4928435;29;20760;-67